sensor_id;sensor_type;location;lat;lon;timestamp;temperature;humidity
69335;SHT31;56477;52.742;15.242;2023-12-20T00:01:41;5.89;99.99
69335;SHT31;56477;52.742;15.242;2023-12-20T00:04:06;5.83;99.99
69335;SHT31;56477;52.742;15.242;2023-12-20T00:06:33;5.82;99.99
69335;SHT31;56477;52.742;15.242;2023-12-20T00:08:58;5.79;99.99
69335;SHT31;56477;52.742;15.242;2023-12-20T00:11:25;5.83;99.99
69335;SHT31;56477;52.742;15.242;2023-12-20T00:13:51;5.83;99.99
69335;SHT31;56477;52.742;15.242;2023-12-20T00:16:17;5.85;99.99
69335;SHT31;56477;52.742;15.242;2023-12-20T00:18:43;5.82;99.99
69335;SHT31;56477;52.742;15.242;2023-12-20T00:21:12;5.83;99.99
69335;SHT31;56477;52.742;15.242;2023-12-20T00:23:38;5.89;99.99
69335;SHT31;56477;52.742;15.242;2023-12-20T00:26:04;5.79;99.99
69335;SHT31;56477;52.742;15.242;2023-12-20T00:28:30;5.83;99.99
69335;SHT31;56477;52.742;15.242;2023-12-20T00:30:56;5.83;99.99
69335;SHT31;56477;52.742;15.242;2023-12-20T00:33:22;5.76;99.99
69335;SHT31;56477;52.742;15.242;2023-12-20T00:35:48;5.78;99.99
69335;SHT31;56477;52.742;15.242;2023-12-20T00:38:14;5.80;99.99
69335;SHT31;56477;52.742;15.242;2023-12-20T00:40:40;5.79;99.99
69335;SHT31;56477;52.742;15.242;2023-12-20T00:43:06;5.72;99.99
69335;SHT31;56477;52.742;15.242;2023-12-20T00:45:32;5.73;99.99
69335;SHT31;56477;52.742;15.242;2023-12-20T00:47:58;5.72;99.99
69335;SHT31;56477;52.742;15.242;2023-12-20T00:50:25;5.69;99.99
69335;SHT31;56477;52.742;15.242;2023-12-20T00:52:51;5.69;99.99
69335;SHT31;56477;52.742;15.242;2023-12-20T00:55:17;5.69;99.99
69335;SHT31;56477;52.742;15.242;2023-12-20T00:57:43;5.70;99.99
69335;SHT31;56477;52.742;15.242;2023-12-20T01:00:09;5.75;99.99
69335;SHT31;56477;52.742;15.242;2023-12-20T01:02:35;5.70;99.99
69335;SHT31;56477;52.742;15.242;2023-12-20T01:05:02;5.69;99.99
69335;SHT31;56477;52.742;15.242;2023-12-20T01:07:28;5.65;99.99
69335;SHT31;56477;52.742;15.242;2023-12-20T01:09:54;5.66;99.99
69335;SHT31;56477;52.742;15.242;2023-12-20T01:12:20;5.66;99.99
69335;SHT31;56477;52.742;15.242;2023-12-20T01:14:46;5.66;99.99
69335;SHT31;56477;52.742;15.242;2023-12-20T01:17:12;5.59;99.99
69335;SHT31;56477;52.742;15.242;2023-12-20T01:19:38;5.59;99.99
69335;SHT31;56477;52.742;15.242;2023-12-20T01:22:05;5.65;99.99
69335;SHT31;56477;52.742;15.242;2023-12-20T01:24:31;5.55;99.99
69335;SHT31;56477;52.742;15.242;2023-12-20T01:26:57;5.55;99.99
69335;SHT31;56477;52.742;15.242;2023-12-20T01:29:23;5.54;99.99
69335;SHT31;56477;52.742;15.242;2023-12-20T01:31:49;5.60;99.99
69335;SHT31;56477;52.742;15.242;2023-12-20T01:34:16;5.62;99.99
69335;SHT31;56477;52.742;15.242;2023-12-20T01:36:43;5.60;99.99
69335;SHT31;56477;52.742;15.242;2023-12-20T01:39:09;5.55;99.99
69335;SHT31;56477;52.742;15.242;2023-12-20T01:41:35;5.56;99.99
69335;SHT31;56477;52.742;15.242;2023-12-20T01:44:01;5.58;99.99
69335;SHT31;56477;52.742;15.242;2023-12-20T01:46:27;5.62;99.99
69335;SHT31;56477;52.742;15.242;2023-12-20T01:48:53;5.63;99.99
69335;SHT31;56477;52.742;15.242;2023-12-20T01:51:20;5.60;99.99
69335;SHT31;56477;52.742;15.242;2023-12-20T01:53:47;5.60;99.99
69335;SHT31;56477;52.742;15.242;2023-12-20T01:56:13;5.69;99.99
69335;SHT31;56477;52.742;15.242;2023-12-20T01:58:43;5.68;99.99
69335;SHT31;56477;52.742;15.242;2023-12-20T02:01:10;5.69;99.99
69335;SHT31;56477;52.742;15.242;2023-12-20T02:03:36;5.68;99.99
69335;SHT31;56477;52.742;15.242;2023-12-20T02:06:03;5.72;99.99
69335;SHT31;56477;52.742;15.242;2023-12-20T02:08:30;5.73;99.99
69335;SHT31;56477;52.742;15.242;2023-12-20T02:10:56;5.66;99.99
69335;SHT31;56477;52.742;15.242;2023-12-20T02:13:23;5.66;99.99
69335;SHT31;56477;52.742;15.242;2023-12-20T02:15:48;5.66;99.99
69335;SHT31;56477;52.742;15.242;2023-12-20T02:18:15;5.66;99.99
69335;SHT31;56477;52.742;15.242;2023-12-20T02:20:42;5.68;99.99
69335;SHT31;56477;52.742;15.242;2023-12-20T02:23:08;5.63;99.99
69335;SHT31;56477;52.742;15.242;2023-12-20T02:25:34;5.72;99.99
69335;SHT31;56477;52.742;15.242;2023-12-20T02:28:01;5.69;99.99
69335;SHT31;56477;52.742;15.242;2023-12-20T02:30:27;5.72;99.99
69335;SHT31;56477;52.742;15.242;2023-12-20T02:32:54;5.69;99.99
69335;SHT31;56477;52.742;15.242;2023-12-20T02:35:20;5.68;99.99
69335;SHT31;56477;52.742;15.242;2023-12-20T02:37:46;5.72;99.99
69335;SHT31;56477;52.742;15.242;2023-12-20T02:40:12;5.69;99.99
69335;SHT31;56477;52.742;15.242;2023-12-20T02:42:38;5.73;99.99
69335;SHT31;56477;52.742;15.242;2023-12-20T02:45:04;5.78;99.99
69335;SHT31;56477;52.742;15.242;2023-12-20T02:47:30;5.72;99.99
69335;SHT31;56477;52.742;15.242;2023-12-20T02:49:56;5.69;99.99
69335;SHT31;56477;52.742;15.242;2023-12-20T02:52:23;5.70;99.99
69335;SHT31;56477;52.742;15.242;2023-12-20T02:54:49;5.69;99.99
69335;SHT31;56477;52.742;15.242;2023-12-20T02:57:16;5.78;99.99
69335;SHT31;56477;52.742;15.242;2023-12-20T02:59:41;5.75;99.99
69335;SHT31;56477;52.742;15.242;2023-12-20T03:02:08;5.78;99.99
69335;SHT31;56477;52.742;15.242;2023-12-20T03:04:33;5.78;99.99
69335;SHT31;56477;52.742;15.242;2023-12-20T03:07:00;5.76;99.99
69335;SHT31;56477;52.742;15.242;2023-12-20T03:09:25;5.76;99.99
69335;SHT31;56477;52.742;15.242;2023-12-20T03:11:52;5.78;99.99
69335;SHT31;56477;52.742;15.242;2023-12-20T03:14:17;5.78;99.99
69335;SHT31;56477;52.742;15.242;2023-12-20T03:16:49;5.76;99.99
69335;SHT31;56477;52.742;15.242;2023-12-20T03:19:16;5.79;99.99
69335;SHT31;56477;52.742;15.242;2023-12-20T03:21:42;5.75;99.99
69335;SHT31;56477;52.742;15.242;2023-12-20T03:24:08;5.82;99.99
69335;SHT31;56477;52.742;15.242;2023-12-20T03:26:34;5.80;99.99
69335;SHT31;56477;52.742;15.242;2023-12-20T03:29:00;5.79;99.99
69335;SHT31;56477;52.742;15.242;2023-12-20T03:31:26;5.78;99.99
69335;SHT31;56477;52.742;15.242;2023-12-20T03:33:52;5.75;99.99
69335;SHT31;56477;52.742;15.242;2023-12-20T03:36:20;5.76;99.99
69335;SHT31;56477;52.742;15.242;2023-12-20T03:38:46;5.70;99.99
69335;SHT31;56477;52.742;15.242;2023-12-20T03:41:13;5.70;99.99
69335;SHT31;56477;52.742;15.242;2023-12-20T03:43:39;5.69;99.99
69335;SHT31;56477;52.742;15.242;2023-12-20T03:46:08;5.68;99.99
69335;SHT31;56477;52.742;15.242;2023-12-20T03:48:34;5.68;99.99
69335;SHT31;56477;52.742;15.242;2023-12-20T03:51:00;5.68;99.99
69335;SHT31;56477;52.742;15.242;2023-12-20T03:53:26;5.69;99.99
69335;SHT31;56477;52.742;15.242;2023-12-20T03:55:52;5.63;99.99
69335;SHT31;56477;52.742;15.242;2023-12-20T03:58:18;5.63;99.99
69335;SHT31;56477;52.742;15.242;2023-12-20T04:00:44;5.65;99.99
69335;SHT31;56477;52.742;15.242;2023-12-20T04:03:10;5.60;99.99
69335;SHT31;56477;52.742;15.242;2023-12-20T04:05:40;5.60;99.99
69335;SHT31;56477;52.742;15.242;2023-12-20T04:08:07;5.60;99.99
69335;SHT31;56477;52.742;15.242;2023-12-20T04:10:33;5.60;99.99
69335;SHT31;56477;52.742;15.242;2023-12-20T04:12:59;5.55;99.99
69335;SHT31;56477;52.742;15.242;2023-12-20T04:15:25;5.55;99.99
69335;SHT31;56477;52.742;15.242;2023-12-20T04:17:51;5.54;99.99
69335;SHT31;56477;52.742;15.242;2023-12-20T04:20:18;5.51;99.99
69335;SHT31;56477;52.742;15.242;2023-12-20T04:22:43;5.49;99.99
69335;SHT31;56477;52.742;15.242;2023-12-20T04:25:10;5.52;99.99
69335;SHT31;56477;52.742;15.242;2023-12-20T04:27:35;5.49;99.99
69335;SHT31;56477;52.742;15.242;2023-12-20T04:30:02;5.49;99.99
69335;SHT31;56477;52.742;15.242;2023-12-20T04:32:29;5.49;99.99
69335;SHT31;56477;52.742;15.242;2023-12-20T04:34:55;5.52;99.99
69335;SHT31;56477;52.742;15.242;2023-12-20T04:37:21;5.48;99.99
69335;SHT31;56477;52.742;15.242;2023-12-20T04:39:47;5.45;99.99
69335;SHT31;56477;52.742;15.242;2023-12-20T04:42:13;5.48;99.99
69335;SHT31;56477;52.742;15.242;2023-12-20T04:44:39;5.56;99.99
69335;SHT31;56477;52.742;15.242;2023-12-20T04:47:05;5.59;99.99
69335;SHT31;56477;52.742;15.242;2023-12-20T04:49:31;5.49;99.99
69335;SHT31;56477;52.742;15.242;2023-12-20T04:51:57;5.56;99.99
69335;SHT31;56477;52.742;15.242;2023-12-20T04:54:23;5.49;99.99
69335;SHT31;56477;52.742;15.242;2023-12-20T04:56:49;5.54;99.99
69335;SHT31;56477;52.742;15.242;2023-12-20T04:59:16;5.54;99.99
69335;SHT31;56477;52.742;15.242;2023-12-20T05:01:42;5.51;99.99
69335;SHT31;56477;52.742;15.242;2023-12-20T05:04:08;5.52;99.99
69335;SHT31;56477;52.742;15.242;2023-12-20T05:06:33;5.56;99.99
69335;SHT31;56477;52.742;15.242;2023-12-20T05:09:00;5.58;99.99
69335;SHT31;56477;52.742;15.242;2023-12-20T05:11:25;5.55;99.99
69335;SHT31;56477;52.742;15.242;2023-12-20T05:13:52;5.56;99.99
69335;SHT31;56477;52.742;15.242;2023-12-20T05:16:18;5.60;99.99
69335;SHT31;56477;52.742;15.242;2023-12-20T05:18:45;5.60;99.99
69335;SHT31;56477;52.742;15.242;2023-12-20T05:21:11;5.59;99.99
69335;SHT31;56477;52.742;15.242;2023-12-20T05:23:37;5.60;99.99
69335;SHT31;56477;52.742;15.242;2023-12-20T05:26:03;5.60;99.99
69335;SHT31;56477;52.742;15.242;2023-12-20T05:28:29;5.60;99.99
69335;SHT31;56477;52.742;15.242;2023-12-20T05:30:55;5.56;99.99
69335;SHT31;56477;52.742;15.242;2023-12-20T05:33:21;5.60;99.99
69335;SHT31;56477;52.742;15.242;2023-12-20T05:35:47;5.59;99.99
69335;SHT31;56477;52.742;15.242;2023-12-20T05:38:13;5.56;99.99
69335;SHT31;56477;52.742;15.242;2023-12-20T05:40:39;5.55;99.99
69335;SHT31;56477;52.742;15.242;2023-12-20T05:43:05;5.52;99.99
69335;SHT31;56477;52.742;15.242;2023-12-20T05:45:31;5.48;99.99
69335;SHT31;56477;52.742;15.242;2023-12-20T05:47:57;5.45;99.99
69335;SHT31;56477;52.742;15.242;2023-12-20T05:50:24;5.42;99.99
69335;SHT31;56477;52.742;15.242;2023-12-20T05:52:51;5.41;99.99
69335;SHT31;56477;52.742;15.242;2023-12-20T05:55:16;5.37;99.66
69335;SHT31;56477;52.742;15.242;2023-12-20T05:57:43;5.30;99.99
69335;SHT31;56477;52.742;15.242;2023-12-20T06:00:09;5.30;99.72
69335;SHT31;56477;52.742;15.242;2023-12-20T06:02:35;5.23;99.99
69335;SHT31;56477;52.742;15.242;2023-12-20T06:05:04;5.23;99.99
69335;SHT31;56477;52.742;15.242;2023-12-20T06:07:31;5.20;99.99
69335;SHT31;56477;52.742;15.242;2023-12-20T06:09:57;5.20;99.99
69335;SHT31;56477;52.742;15.242;2023-12-20T06:12:23;5.14;99.99
69335;SHT31;56477;52.742;15.242;2023-12-20T06:14:49;5.17;99.99
69335;SHT31;56477;52.742;15.242;2023-12-20T06:17:15;5.16;99.99
69335;SHT31;56477;52.742;15.242;2023-12-20T06:19:41;5.10;99.99
69335;SHT31;56477;52.742;15.242;2023-12-20T06:22:10;5.10;99.99
69335;SHT31;56477;52.742;15.242;2023-12-20T06:24:36;5.03;99.99
69335;SHT31;56477;52.742;15.242;2023-12-20T06:27:03;5.01;99.99
69335;SHT31;56477;52.742;15.242;2023-12-20T06:29:29;4.94;99.99
69335;SHT31;56477;52.742;15.242;2023-12-20T06:31:55;4.90;99.99
69335;SHT31;56477;52.742;15.242;2023-12-20T06:34:21;4.84;99.99
69335;SHT31;56477;52.742;15.242;2023-12-20T06:36:47;4.81;99.99
69335;SHT31;56477;52.742;15.242;2023-12-20T06:39:13;4.73;99.99
69335;SHT31;56477;52.742;15.242;2023-12-20T06:41:40;4.77;99.99
69335;SHT31;56477;52.742;15.242;2023-12-20T06:44:05;4.81;99.99
69335;SHT31;56477;52.742;15.242;2023-12-20T06:46:32;4.81;99.99
69335;SHT31;56477;52.742;15.242;2023-12-20T06:48:58;4.77;99.99
69335;SHT31;56477;52.742;15.242;2023-12-20T06:51:24;4.79;99.99
69335;SHT31;56477;52.742;15.242;2023-12-20T06:53:54;4.76;99.99
69335;SHT31;56477;52.742;15.242;2023-12-20T06:56:20;4.69;99.99
69335;SHT31;56477;52.742;15.242;2023-12-20T06:58:46;4.73;99.99
69335;SHT31;56477;52.742;15.242;2023-12-20T07:01:13;4.76;99.99
69335;SHT31;56477;52.742;15.242;2023-12-20T07:03:39;4.72;99.99
69335;SHT31;56477;52.742;15.242;2023-12-20T07:06:08;4.70;99.99
69335;SHT31;56477;52.742;15.242;2023-12-20T07:08:34;4.75;99.99
69335;SHT31;56477;52.742;15.242;2023-12-20T07:11:00;4.73;99.99
69335;SHT31;56477;52.742;15.242;2023-12-20T07:13:26;4.68;99.99
69335;SHT31;56477;52.742;15.242;2023-12-20T07:15:52;4.65;99.99
69335;SHT31;56477;52.742;15.242;2023-12-20T07:18:24;4.68;99.99
69335;SHT31;56477;52.742;15.242;2023-12-20T07:20:50;4.69;99.99
69335;SHT31;56477;52.742;15.242;2023-12-20T07:23:16;4.68;99.99
69335;SHT31;56477;52.742;15.242;2023-12-20T07:25:42;4.69;99.99
69335;SHT31;56477;52.742;15.242;2023-12-20T07:28:08;4.69;99.78
69335;SHT31;56477;52.742;15.242;2023-12-20T07:30:34;4.75;98.71
69335;SHT31;56477;52.742;15.242;2023-12-20T07:33:00;4.76;98.60
69335;SHT31;56477;52.742;15.242;2023-12-20T07:35:26;4.80;97.77
69335;SHT31;56477;52.742;15.242;2023-12-20T07:37:52;4.75;98.08
69335;SHT31;56477;52.742;15.242;2023-12-20T07:40:19;4.77;97.70
69335;SHT31;56477;52.742;15.242;2023-12-20T07:42:45;4.75;98.10
69335;SHT31;56477;52.742;15.242;2023-12-20T07:45:11;4.75;98.10
69335;SHT31;56477;52.742;15.242;2023-12-20T07:47:37;4.80;97.93
69335;SHT31;56477;52.742;15.242;2023-12-20T07:50:04;4.80;98.05
69335;SHT31;56477;52.742;15.242;2023-12-20T07:52:30;4.89;97.81
69335;SHT31;56477;52.742;15.242;2023-12-20T07:54:56;4.97;97.49
69335;SHT31;56477;52.742;15.242;2023-12-20T07:57:23;5.04;97.34
69335;SHT31;56477;52.742;15.242;2023-12-20T07:59:49;5.06;97.32
69335;SHT31;56477;52.742;15.242;2023-12-20T08:02:15;5.10;97.61
69335;SHT31;56477;52.742;15.242;2023-12-20T08:04:41;5.21;97.63
69335;SHT31;56477;52.742;15.242;2023-12-20T08:07:07;5.20;97.80
69335;SHT31;56477;52.742;15.242;2023-12-20T08:09:33;5.10;97.94
69335;SHT31;56477;52.742;15.242;2023-12-20T08:12:02;5.14;98.14
69335;SHT31;56477;52.742;15.242;2023-12-20T08:14:28;5.14;97.83
69335;SHT31;56477;52.742;15.242;2023-12-20T08:16:54;5.20;97.99
69335;SHT31;56477;52.742;15.242;2023-12-20T08:19:20;5.20;97.87
69335;SHT31;56477;52.742;15.242;2023-12-20T08:21:46;5.14;98.21
69335;SHT31;56477;52.742;15.242;2023-12-20T08:24:12;5.06;98.62
69335;SHT31;56477;52.742;15.242;2023-12-20T08:26:38;5.08;98.67
69335;SHT31;56477;52.742;15.242;2023-12-20T08:29:05;5.06;99.10
69335;SHT31;56477;52.742;15.242;2023-12-20T08:31:30;5.06;99.23
69335;SHT31;56477;52.742;15.242;2023-12-20T08:33:57;5.01;99.03
69335;SHT31;56477;52.742;15.242;2023-12-20T08:36:22;4.94;99.35
69335;SHT31;56477;52.742;15.242;2023-12-20T08:38:50;4.99;99.43
69335;SHT31;56477;52.742;15.242;2023-12-20T08:41:17;4.93;99.81
69335;SHT31;56477;52.742;15.242;2023-12-20T08:43:43;5.03;99.16
69335;SHT31;56477;52.742;15.242;2023-12-20T08:46:09;5.03;99.20
69335;SHT31;56477;52.742;15.242;2023-12-20T08:48:35;5.06;98.62
69335;SHT31;56477;52.742;15.242;2023-12-20T08:51:01;5.11;98.68
69335;SHT31;56477;52.742;15.242;2023-12-20T08:53:28;5.11;98.48
69335;SHT31;56477;52.742;15.242;2023-12-20T08:55:53;5.14;98.50
69335;SHT31;56477;52.742;15.242;2023-12-20T08:58:20;5.17;97.78
69335;SHT31;56477;52.742;15.242;2023-12-20T09:00:46;5.14;97.88
69335;SHT31;56477;52.742;15.242;2023-12-20T09:03:12;5.11;97.74
69335;SHT31;56477;52.742;15.242;2023-12-20T09:05:38;5.17;97.79
69335;SHT31;56477;52.742;15.242;2023-12-20T09:08:04;5.13;97.57
69335;SHT31;56477;52.742;15.242;2023-12-20T09:10:30;5.20;97.50
69335;SHT31;56477;52.742;15.242;2023-12-20T09:12:56;5.14;97.57
69335;SHT31;56477;52.742;15.242;2023-12-20T09:15:25;5.16;97.25
69335;SHT31;56477;52.742;15.242;2023-12-20T09:17:51;5.18;97.44
69335;SHT31;56477;52.742;15.242;2023-12-20T09:20:17;5.17;97.33
69335;SHT31;56477;52.742;15.242;2023-12-20T09:22:43;5.14;97.38
69335;SHT31;56477;52.742;15.242;2023-12-20T09:25:10;5.23;97.30
69335;SHT31;56477;52.742;15.242;2023-12-20T09:27:37;5.11;97.97
69335;SHT31;56477;52.742;15.242;2023-12-20T09:30:03;5.10;98.14
69335;SHT31;56477;52.742;15.242;2023-12-20T09:32:31;5.08;98.51
69335;SHT31;56477;52.742;15.242;2023-12-20T09:34:57;5.04;98.72
69335;SHT31;56477;52.742;15.242;2023-12-20T09:37:27;5.06;98.54
69335;SHT31;56477;52.742;15.242;2023-12-20T09:39:53;5.03;98.83
69335;SHT31;56477;52.742;15.242;2023-12-20T09:42:47;4.99;98.30
69335;SHT31;56477;52.742;15.242;2023-12-20T09:45:15;5.03;98.23
69335;SHT31;56477;52.742;15.242;2023-12-20T09:47:44;5.03;98.08
69335;SHT31;56477;52.742;15.242;2023-12-20T09:50:10;5.07;98.73
69335;SHT31;56477;52.742;15.242;2023-12-20T09:52:39;5.14;98.49
69335;SHT31;56477;52.742;15.242;2023-12-20T09:55:06;5.11;98.44
69335;SHT31;56477;52.742;15.242;2023-12-20T09:57:33;5.07;98.94
69335;SHT31;56477;52.742;15.242;2023-12-20T09:59:59;5.17;98.88
69335;SHT31;56477;52.742;15.242;2023-12-20T10:02:26;5.14;98.78
69335;SHT31;56477;52.742;15.242;2023-12-20T10:04:54;5.16;98.87
69335;SHT31;56477;52.742;15.242;2023-12-20T10:07:20;5.14;98.56
69335;SHT31;56477;52.742;15.242;2023-12-20T10:09:48;5.13;99.21
69335;SHT31;56477;52.742;15.242;2023-12-20T10:12:14;5.11;98.75
69335;SHT31;56477;52.742;15.242;2023-12-20T10:14:40;5.14;98.56
69335;SHT31;56477;52.742;15.242;2023-12-20T10:17:06;5.14;98.31
69335;SHT31;56477;52.742;15.242;2023-12-20T10:19:32;5.17;98.21
69335;SHT31;56477;52.742;15.242;2023-12-20T10:21:59;5.20;97.96
69335;SHT31;56477;52.742;15.242;2023-12-20T10:24:28;5.27;98.07
69335;SHT31;56477;52.742;15.242;2023-12-20T10:27:02;5.31;97.88
69335;SHT31;56477;52.742;15.242;2023-12-20T10:29:32;5.24;98.25
69335;SHT31;56477;52.742;15.242;2023-12-20T10:31:59;5.27;97.87
69335;SHT31;56477;52.742;15.242;2023-12-20T10:34:25;5.28;97.65
69335;SHT31;56477;52.742;15.242;2023-12-20T10:36:52;5.28;97.69
69335;SHT31;56477;52.742;15.242;2023-12-20T10:39:17;5.28;98.02
69335;SHT31;56477;52.742;15.242;2023-12-20T10:41:46;5.34;97.36
69335;SHT31;56477;52.742;15.242;2023-12-20T10:44:13;5.28;97.14
69335;SHT31;56477;52.742;15.242;2023-12-20T10:46:40;5.30;97.30
69335;SHT31;56477;52.742;15.242;2023-12-20T10:49:07;5.27;97.47
69335;SHT31;56477;52.742;15.242;2023-12-20T10:51:34;5.31;96.88
69335;SHT31;56477;52.742;15.242;2023-12-20T10:54:00;5.35;97.21
69335;SHT31;56477;52.742;15.242;2023-12-20T10:56:32;5.32;97.00
69335;SHT31;56477;52.742;15.242;2023-12-20T10:59:01;5.38;96.91
69335;SHT31;56477;52.742;15.242;2023-12-20T11:01:30;5.39;96.85
69335;SHT31;56477;52.742;15.242;2023-12-20T11:03:57;5.41;96.73
69335;SHT31;56477;52.742;15.242;2023-12-20T11:06:33;5.39;96.64
69335;SHT31;56477;52.742;15.242;2023-12-20T11:09:13;5.37;97.11
69335;SHT31;56477;52.742;15.242;2023-12-20T11:14:47;5.34;97.10
69335;SHT31;56477;52.742;15.242;2023-12-20T11:17:14;5.37;97.25
69335;SHT31;56477;52.742;15.242;2023-12-20T11:22:25;5.56;95.78
69335;SHT31;56477;52.742;15.242;2023-12-20T11:24:52;5.59;95.62
69335;SHT31;56477;52.742;15.242;2023-12-20T11:27:19;5.60;95.73
69335;SHT31;56477;52.742;15.242;2023-12-20T11:29:51;5.70;95.80
69335;SHT31;56477;52.742;15.242;2023-12-20T11:34:55;5.68;95.62
69335;SHT31;56477;52.742;15.242;2023-12-20T11:37:22;5.65;95.77
69335;SHT31;56477;52.742;15.242;2023-12-20T11:40:11;5.66;95.86
69335;SHT31;56477;52.742;15.242;2023-12-20T11:42:39;5.49;96.05
69335;SHT31;56477;52.742;15.242;2023-12-20T11:45:09;5.56;96.23
69335;SHT31;56477;52.742;15.242;2023-12-20T11:47:35;5.59;95.68
69335;SHT31;56477;52.742;15.242;2023-12-20T11:50:01;5.51;96.30
69335;SHT31;56477;52.742;15.242;2023-12-20T11:52:30;5.58;95.78
69335;SHT31;56477;52.742;15.242;2023-12-20T11:54:57;5.52;96.39
69335;SHT31;56477;52.742;15.242;2023-12-20T11:57:23;5.69;95.93
69335;SHT31;56477;52.742;15.242;2023-12-20T11:59:49;5.63;95.80
69335;SHT31;56477;52.742;15.242;2023-12-20T12:02:15;5.69;95.90
69335;SHT31;56477;52.742;15.242;2023-12-20T12:04:42;5.73;95.51
69335;SHT31;56477;52.742;15.242;2023-12-20T12:07:08;5.66;95.91
69335;SHT31;56477;52.742;15.242;2023-12-20T12:09:36;5.62;95.89
69335;SHT31;56477;52.742;15.242;2023-12-20T12:12:03;5.60;95.84
69335;SHT31;56477;52.742;15.242;2023-12-20T12:14:29;5.60;96.17
69335;SHT31;56477;52.742;15.242;2023-12-20T12:16:55;5.65;95.83
69335;SHT31;56477;52.742;15.242;2023-12-20T12:19:25;5.60;95.72
69335;SHT31;56477;52.742;15.242;2023-12-20T12:22:04;5.65;95.84
69335;SHT31;56477;52.742;15.242;2023-12-20T12:24:32;5.62;96.01
69335;SHT31;56477;52.742;15.242;2023-12-20T12:26:59;5.60;95.64
69335;SHT31;56477;52.742;15.242;2023-12-20T12:29:25;5.60;95.71
69335;SHT31;56477;52.742;15.242;2023-12-20T12:31:51;5.55;96.40
69335;SHT31;56477;52.742;15.242;2023-12-20T12:34:17;5.58;95.42
69335;SHT31;56477;52.742;15.242;2023-12-20T12:36:44;5.60;95.66
69335;SHT31;56477;52.742;15.242;2023-12-20T12:39:12;5.70;95.25
69335;SHT31;56477;52.742;15.242;2023-12-20T12:41:41;5.69;94.98
69335;SHT31;56477;52.742;15.242;2023-12-20T12:44:07;5.75;94.50
69335;SHT31;56477;52.742;15.242;2023-12-20T12:46:33;5.65;94.59
69335;SHT31;56477;52.742;15.242;2023-12-20T12:49:04;5.79;94.40
69335;SHT31;56477;52.742;15.242;2023-12-20T12:51:38;5.75;94.64
69335;SHT31;56477;52.742;15.242;2023-12-20T12:54:04;5.79;94.10
69335;SHT31;56477;52.742;15.242;2023-12-20T12:56:30;5.76;94.37
69335;SHT31;56477;52.742;15.242;2023-12-20T12:58:56;5.73;94.48
69335;SHT31;56477;52.742;15.242;2023-12-20T13:01:23;5.80;93.95
69335;SHT31;56477;52.742;15.242;2023-12-20T13:03:49;5.78;94.00
69335;SHT31;56477;52.742;15.242;2023-12-20T13:06:15;5.72;94.65
69335;SHT31;56477;52.742;15.242;2023-12-20T13:08:41;5.69;94.42
69335;SHT31;56477;52.742;15.242;2023-12-20T13:11:07;5.68;94.49
69335;SHT31;56477;52.742;15.242;2023-12-20T13:13:33;5.63;94.94
69335;SHT31;56477;52.742;15.242;2023-12-20T13:16:00;5.56;95.02
69335;SHT31;56477;52.742;15.242;2023-12-20T13:18:26;5.47;95.91
69335;SHT31;56477;52.742;15.242;2023-12-20T13:20:53;5.41;96.19
69335;SHT31;56477;52.742;15.242;2023-12-20T13:23:19;5.45;96.52
69335;SHT31;56477;52.742;15.242;2023-12-20T13:25:46;5.35;96.84
69335;SHT31;56477;52.742;15.242;2023-12-20T13:28:12;5.35;96.86
69335;SHT31;56477;52.742;15.242;2023-12-20T13:30:39;5.31;97.09
69335;SHT31;56477;52.742;15.242;2023-12-20T13:33:05;5.26;97.70
69335;SHT31;56477;52.742;15.242;2023-12-20T13:35:32;5.23;97.90
69335;SHT31;56477;52.742;15.242;2023-12-20T13:37:59;5.24;98.03
69335;SHT31;56477;52.742;15.242;2023-12-20T13:40:26;5.20;98.14
69335;SHT31;56477;52.742;15.242;2023-12-20T13:42:54;5.24;98.22
69335;SHT31;56477;52.742;15.242;2023-12-20T13:45:20;5.21;97.99
69335;SHT31;56477;52.742;15.242;2023-12-20T13:47:47;5.23;98.37
69335;SHT31;56477;52.742;15.242;2023-12-20T13:50:13;5.24;98.49
69335;SHT31;56477;52.742;15.242;2023-12-20T13:52:39;5.23;98.39
69335;SHT31;56477;52.742;15.242;2023-12-20T13:55:05;5.24;98.15
69335;SHT31;56477;52.742;15.242;2023-12-20T13:57:33;5.34;97.49
69335;SHT31;56477;52.742;15.242;2023-12-20T14:00:00;5.41;96.96
69335;SHT31;56477;52.742;15.242;2023-12-20T14:02:28;5.35;97.21
69335;SHT31;56477;52.742;15.242;2023-12-20T14:04:54;5.32;97.44
69335;SHT31;56477;52.742;15.242;2023-12-20T14:07:20;5.38;97.16
69335;SHT31;56477;52.742;15.242;2023-12-20T14:09:47;5.42;96.80
69335;SHT31;56477;52.742;15.242;2023-12-20T14:12:13;5.49;96.24
69335;SHT31;56477;52.742;15.242;2023-12-20T14:14:40;5.52;96.10
69335;SHT31;56477;52.742;15.242;2023-12-20T14:17:06;5.62;93.80
69335;SHT31;56477;52.742;15.242;2023-12-20T14:19:35;5.58;94.07
69335;SHT31;56477;52.742;15.242;2023-12-20T14:22:01;5.52;94.96
69335;SHT31;56477;52.742;15.242;2023-12-20T14:24:28;5.47;94.13
69335;SHT31;56477;52.742;15.242;2023-12-20T14:26:54;5.44;94.71
69335;SHT31;56477;52.742;15.242;2023-12-20T14:29:20;5.38;94.31
69335;SHT31;56477;52.742;15.242;2023-12-20T14:31:46;5.37;93.62
69335;SHT31;56477;52.742;15.242;2023-12-20T14:34:12;5.27;92.87
69335;SHT31;56477;52.742;15.242;2023-12-20T14:36:38;5.18;93.40
69335;SHT31;56477;52.742;15.242;2023-12-20T14:39:04;5.07;92.93
69335;SHT31;56477;52.742;15.242;2023-12-20T14:41:30;5.03;93.21
69335;SHT31;56477;52.742;15.242;2023-12-20T14:43:57;4.93;93.04
69335;SHT31;56477;52.742;15.242;2023-12-20T14:46:23;4.79;93.95
69335;SHT31;56477;52.742;15.242;2023-12-20T14:48:49;4.72;94.11
69335;SHT31;56477;52.742;15.242;2023-12-20T14:51:15;4.75;93.67
69335;SHT31;56477;52.742;15.242;2023-12-20T14:53:42;4.72;93.59
69335;SHT31;56477;52.742;15.242;2023-12-20T14:56:08;4.65;94.07
69335;SHT31;56477;52.742;15.242;2023-12-20T14:58:34;4.69;93.49
69335;SHT31;56477;52.742;15.242;2023-12-20T15:01:00;4.72;93.24
69335;SHT31;56477;52.742;15.242;2023-12-20T15:03:27;4.63;94.09
69335;SHT31;56477;52.742;15.242;2023-12-20T15:05:54;4.66;93.94
69335;SHT31;56477;52.742;15.242;2023-12-20T15:08:20;4.59;94.42
69335;SHT31;56477;52.742;15.242;2023-12-20T15:10:47;4.59;94.52
69335;SHT31;56477;52.742;15.242;2023-12-20T15:13:13;4.53;95.05
69335;SHT31;56477;52.742;15.242;2023-12-20T15:15:39;4.55;95.21
69335;SHT31;56477;52.742;15.242;2023-12-20T15:18:05;4.52;95.32
69335;SHT31;56477;52.742;15.242;2023-12-20T15:20:31;4.50;95.71
69335;SHT31;56477;52.742;15.242;2023-12-20T15:23:00;4.55;95.73
69335;SHT31;56477;52.742;15.242;2023-12-20T15:25:32;4.46;96.05
69335;SHT31;56477;52.742;15.242;2023-12-20T15:27:58;4.42;96.46
69335;SHT31;56477;52.742;15.242;2023-12-20T15:30:24;4.35;96.59
69335;SHT31;56477;52.742;15.242;2023-12-20T15:32:51;4.29;96.62
69335;SHT31;56477;52.742;15.242;2023-12-20T15:35:17;4.29;96.90